Plainfield, Iowa
Current Conditions -  °F | °C
As of 9:55 AM on Tuesday 21 Oct 2014 (Local Time) from KCCY Reporting Station
Clear Clear  
Wind Chill: 44°   Ceiling: Unl
Heat Index: 48°   Visibility: 10mi
Dew Point: 41°   Wind: 10mph
Humidity: 76%   Direction: 100°E
Pressure: 30.21"   Gusts: NA
Location:  42.85°N, 92.54°W
Report Text: KCCY 211455Z AUTO 10009KT 10SM CLR 09/05 A3021 RMK AO2 P0003
Loading
Personal Weather Stations






























Interactive Weather Map
Tropical Storm Tracking
New forecast layout! Learn more

10-Day Weather Forecast

Advertisements
Track Severe Weather on mobile